createdAt,value
2022-08-05T00:03:53.106Z,23.4
2022-08-05T00:08:59.239Z,22.8
2022-08-05T00:14:05.329Z,22.5
2022-08-05T00:19:11.412Z,22.8
2022-08-05T00:24:17.525Z,22.8
2022-08-05T00:29:23.617Z,23.1
2022-08-05T00:34:28.703Z,22.8
2022-08-05T00:39:33.822Z,22.5
2022-08-05T00:44:38.948Z,22.5
2022-08-05T00:49:44.078Z,22.5
2022-08-05T00:54:50.152Z,22.5
2022-08-05T00:59:56.267Z,22.8
2022-08-05T01:05:02.359Z,22.5
2022-08-05T01:10:08.430Z,22.1
2022-08-05T01:15:14.523Z,22.1
2022-08-05T01:20:20.604Z,22.5
2022-08-05T01:25:26.723Z,22.1
2022-08-05T01:30:32.791Z,23.1
2022-08-05T01:35:38.883Z,21.8
2022-08-05T01:40:45.016Z,22.8
2022-08-05T01:45:51.081Z,22.1
2022-08-05T01:50:57.206Z,21.8
2022-08-05T01:56:02.283Z,22.5
2022-08-05T02:01:08.403Z,22.1
2022-08-05T02:06:14.490Z,22.1
2022-08-05T02:11:20.556Z,22.1
2022-08-05T02:16:26.679Z,21.8
2022-08-05T02:21:32.770Z,21.8
2022-08-05T02:26:38.860Z,22.1
2022-08-05T02:31:43.958Z,22.1
2022-08-05T02:36:49.109Z,22.1
2022-08-05T02:41:54.184Z,22.5
2022-08-05T02:46:59.311Z,21.8
2022-08-05T02:52:05.392Z,21.8
2022-08-05T02:57:11.476Z,21.8
2022-08-05T03:02:17.631Z,21.8
2022-08-05T03:07:23.678Z,21.8
2022-08-05T03:12:29.800Z,21.5
2022-08-05T03:17:35.873Z,21.8
2022-08-05T03:22:41.976Z,21.5
2022-08-05T03:27:48.054Z,21.8
2022-08-05T03:32:54.169Z,21.5
2022-08-05T03:38:00.258Z,21.8
2022-08-05T03:43:06.348Z,21.8
2022-08-05T03:48:12.456Z,21.5
2022-08-05T03:53:17.552Z,22.1
2022-08-05T03:58:23.644Z,21.8
2022-08-05T04:03:29.733Z,21.8
2022-08-05T04:08:35.813Z,21.8
2022-08-05T04:13:41.899Z,22.1
2022-08-05T04:18:48.004Z,21.5
2022-08-05T04:23:54.087Z,21.8
2022-08-05T04:28:59.198Z,21.5
2022-08-05T04:34:11.586Z,21.5
2022-08-05T04:39:10.424Z,21.5
2022-08-05T04:44:16.500Z,21.5
2022-08-05T04:49:22.590Z,21.2
2022-08-05T04:54:28.694Z,21.2
2022-08-05T04:59:34.809Z,21.8
2022-08-05T05:04:40.879Z,21.2
2022-08-05T05:09:46.989Z,21.5
2022-08-05T05:14:53.050Z,21.5
2022-08-05T05:19:59.161Z,21.5
2022-08-05T05:25:05.263Z,21.5
2022-08-05T05:30:11.363Z,21.5
2022-08-05T05:35:17.462Z,22.5
2022-08-05T05:40:22.562Z,22.1
2022-08-05T05:45:28.671Z,22.8
2022-08-05T05:50:34.754Z,21.8
2022-08-05T05:55:40.863Z,22.5
2022-08-05T06:00:46.955Z,21.8
2022-08-05T06:05:53.040Z,21.8
2022-08-05T06:10:59.139Z,21.8
2022-08-05T06:16:04.273Z,21.8
2022-08-05T06:21:09.368Z,21.5
2022-08-05T06:26:14.479Z,21.8
2022-08-05T06:31:19.603Z,21.8
2022-08-05T06:36:25.695Z,21.8
2022-08-05T06:41:31.780Z,21.5
2022-08-05T06:46:37.867Z,21.8
2022-08-05T06:51:43.962Z,21.8
2022-08-05T06:56:50.054Z,21.8
2022-08-05T07:01:56.156Z,21.8
2022-08-05T07:07:02.249Z,21.8
2022-08-05T07:12:08.340Z,21.8
2022-08-05T07:17:14.437Z,21.5
2022-08-05T07:22:20.543Z,21.5
2022-08-05T07:27:26.623Z,21.8
2022-08-05T07:32:32.720Z,21.8
2022-08-05T07:37:37.851Z,22.1
2022-08-05T07:42:43.925Z,22.5
2022-08-05T07:47:50.024Z,22.1
2022-08-05T07:52:56.124Z,22.5
2022-08-05T07:58:02.223Z,22.1
2022-08-05T08:03:08.332Z,22.1
2022-08-05T08:08:14.394Z,22.8
2022-08-05T08:13:19.510Z,22.1
2022-08-05T08:18:24.622Z,22.1
2022-08-05T08:23:29.735Z,22.1
2022-08-05T08:28:34.847Z,22.5
2022-08-05T08:33:39.974Z,22.8
2022-08-05T08:38:45.073Z,22.5
2022-08-05T08:43:51.159Z,22.8
2022-08-05T08:48:57.270Z,22.8
2022-08-05T08:54:03.351Z,22.5
2022-08-05T08:59:09.462Z,22.8
2022-08-05T09:04:15.552Z,22.8
2022-08-05T09:09:21.641Z,22.5
2022-08-05T09:14:32.531Z,22.5
2022-08-05T09:19:33.836Z,22.1
2022-08-05T09:24:39.932Z,22.5
2022-08-05T09:29:46.007Z,22.8
2022-08-05T09:34:52.110Z,22.5
2022-08-05T09:39:58.202Z,22.8
2022-08-05T09:45:03.333Z,22.5
2022-08-05T09:50:09.419Z,22.5
2022-08-05T09:55:21.133Z,22.5
2022-08-05T10:00:21.601Z,22.5
2022-08-05T10:05:27.706Z,22.5
2022-08-05T10:10:33.813Z,23.1
2022-08-05T10:15:39.900Z,22.8
2022-08-05T10:20:45.018Z,22.5
2022-08-05T10:25:50.102Z,22.8
2022-08-05T10:30:55.239Z,23.7
2022-08-05T10:36:00.352Z,24.1
2022-08-05T10:41:06.444Z,23.4
2022-08-05T10:46:12.531Z,24.1
2022-08-05T10:51:18.626Z,24.1
2022-08-05T10:56:24.718Z,24.4
2022-08-05T11:01:44.707Z,24.7
2022-08-05T11:06:36.922Z,24.7
2022-08-05T11:11:44.233Z,25
2022-08-05T11:16:49.103Z,25
2022-08-05T11:21:55.202Z,25.7
2022-08-05T11:27:01.284Z,25.4
2022-08-05T11:32:07.391Z,26
2022-08-05T11:37:13.490Z,26.3
2022-08-05T11:42:18.619Z,26.3
2022-08-05T11:47:24.693Z,26.3
2022-08-05T11:52:30.805Z,26
2022-08-05T11:57:36.909Z,25.7
2022-08-05T12:02:42.991Z,26.6
2022-08-05T12:07:49.084Z,27.3
2022-08-05T12:12:55.177Z,27.6
2022-08-05T12:18:00.309Z,27.6
2022-08-05T12:23:05.433Z,27
2022-08-05T12:28:10.541Z,27
2022-08-05T12:33:15.644Z,26.6
2022-08-05T12:38:21.726Z,26.6
2022-08-05T12:43:27.842Z,26.6
2022-08-05T12:48:33.936Z,26.3
2022-08-05T12:53:40.045Z,26
2022-08-05T12:58:48.022Z,25.4
2022-08-05T13:03:52.213Z,25.7
2022-08-05T13:08:58.308Z,25.4
2022-08-05T13:14:04.424Z,25.4
2022-08-05T13:19:10.514Z,25.4
2022-08-05T13:24:16.596Z,25.4
2022-08-05T13:29:22.689Z,25.4
2022-08-05T13:34:28.826Z,25.4
2022-08-05T13:39:44.836Z,25
2022-08-05T13:44:39.986Z,25.4
2022-08-05T13:49:46.080Z,25.4
2022-08-05T13:54:52.198Z,26
2022-08-05T13:59:57.311Z,25.4
2022-08-05T14:05:03.387Z,25.4
2022-08-05T14:10:09.481Z,25.7
2022-08-05T14:15:14.616Z,25.4
2022-08-05T14:20:19.723Z,25.7
2022-08-05T14:25:24.854Z,25.4
2022-08-05T14:30:29.953Z,25.4
2022-08-05T14:35:36.048Z,25
2022-08-05T14:40:42.133Z,25.4
2022-08-05T14:45:48.245Z,25
2022-08-05T14:50:54.344Z,25.4
2022-08-05T14:56:00.440Z,24.7
2022-08-05T15:01:06.507Z,24.7
2022-08-05T15:06:12.605Z,24.4
2022-08-05T15:11:18.704Z,24.1
2022-08-05T15:16:24.817Z,23.7
2022-08-05T15:21:30.881Z,23.7
2022-08-05T15:26:36.999Z,23.4
2022-08-05T15:31:43.113Z,23.4
2022-08-05T15:36:48.228Z,23.1
2022-08-05T15:41:54.271Z,23.4
2022-08-05T15:47:00.397Z,23.1
2022-08-05T15:52:06.478Z,23.1
2022-08-05T15:57:12.594Z,23.4
2022-08-05T16:02:18.654Z,22.8
2022-08-05T16:07:24.788Z,22.8
2022-08-05T16:12:29.898Z,22.8
2022-08-05T16:17:34.986Z,22.1
2022-08-05T16:22:40.103Z,22.8
2022-08-05T16:27:45.219Z,22.1
2022-08-05T16:32:51.310Z,21.8
2022-08-05T16:37:56.427Z,21.8
2022-08-05T16:43:01.525Z,21.8
2022-08-05T16:48:07.640Z,21.8
2022-08-05T16:53:13.716Z,21.5
2022-08-05T16:58:19.827Z,21.8
2022-08-05T17:03:25.910Z,21.5
2022-08-05T17:08:31.986Z,21.5
2022-08-05T17:13:38.110Z,21.5
2022-08-05T17:18:44.188Z,21.2
2022-08-05T17:23:50.298Z,21.5
2022-08-05T17:28:56.381Z,21.2
2022-08-05T17:34:02.465Z,21.2
2022-08-05T17:39:08.556Z,20.8
2022-08-05T17:44:14.682Z,21.2
2022-08-05T17:49:19.780Z,21.8
2022-08-05T17:54:25.874Z,21.5
2022-08-05T17:59:31.981Z,20.8
2022-08-05T18:04:38.068Z,20.8
2022-08-05T18:09:44.141Z,20.8
2022-08-05T18:14:50.260Z,20.5
2022-08-05T18:19:56.353Z,20.8
2022-08-05T18:25:01.461Z,20.8
2022-08-05T18:30:06.554Z,20.8
2022-08-05T18:35:11.715Z,20.8
2022-08-05T18:40:16.778Z,20.5
2022-08-05T18:45:22.905Z,21.2
2022-08-05T18:50:28.959Z,20.2
2022-08-05T18:55:35.098Z,20.5
2022-08-05T19:00:41.163Z,20.5
2022-08-05T19:05:47.256Z,20.2
2022-08-05T19:10:53.361Z,20.5
2022-08-05T19:15:59.444Z,20.5
2022-08-05T19:21:05.536Z,20.5
2022-08-05T19:26:11.627Z,20.5
2022-08-05T19:31:17.742Z,20.5
2022-08-05T19:36:23.824Z,20.5
2022-08-05T19:41:29.894Z,20.5
2022-08-05T19:46:35.023Z,20.5
2022-08-05T19:51:41.118Z,20.8
2022-08-05T19:56:47.209Z,20.2
2022-08-05T20:01:53.310Z,20.5
2022-08-05T20:06:59.407Z,19.9
2022-08-05T20:12:05.480Z,20.2
2022-08-05T20:17:11.585Z,20.2
2022-08-05T20:22:16.709Z,20.2
2022-08-05T20:27:21.806Z,20.2
2022-08-05T20:32:27.905Z,20.2
2022-08-05T20:37:33.015Z,20.8
2022-08-05T20:42:38.120Z,20.5
2022-08-05T20:47:44.222Z,21.2
2022-08-05T20:52:50.324Z,20.2
2022-08-05T20:57:56.410Z,19.9
2022-08-05T21:03:02.487Z,20.5
2022-08-05T21:08:08.594Z,19.9
2022-08-05T21:13:14.696Z,19.9
2022-08-05T21:18:20.794Z,19.6
2022-08-05T21:23:26.903Z,19.9
2022-08-05T21:28:32.976Z,19.9
2022-08-05T21:33:39.084Z,19.9
2022-08-05T21:38:45.181Z,19.9
2022-08-05T21:43:51.259Z,19.6
2022-08-05T21:48:56.373Z,19.9
2022-08-05T21:54:02.450Z,19.9
2022-08-05T21:59:08.562Z,19.6
2022-08-05T22:04:14.678Z,19.6
2022-08-05T22:09:20.748Z,19.6
2022-08-05T22:14:26.869Z,19.9
2022-08-05T22:19:46.719Z,19.9
2022-08-05T22:24:38.058Z,19.6
2022-08-05T22:29:43.149Z,19.6
2022-08-05T22:34:48.290Z,19.2
2022-08-05T22:39:53.371Z,19.6
2022-08-05T22:44:59.478Z,19.2
2022-08-05T22:50:15.707Z,19.6
2022-08-05T22:55:11.681Z,19.6
2022-08-05T23:00:17.777Z,19.6
2022-08-05T23:05:23.856Z,19.6
2022-08-05T23:10:29.959Z,19.6
2022-08-05T23:15:36.054Z,19.6
2022-08-05T23:20:42.143Z,19.2
2022-08-05T23:25:48.249Z,19.2
2022-08-05T23:30:54.356Z,19.2
2022-08-05T23:36:00.437Z,18.9
2022-08-05T23:41:06.536Z,18.9
2022-08-05T23:46:11.627Z,19.2
2022-08-05T23:51:17.721Z,18.9
2022-08-05T23:56:23.816Z,19.6
